sensor_id;sensor_type;location;lat;lon;timestamp;P1;durP1;ratioP1;P2;durP2;ratioP2
11125;SDS011;5617;54.046;10.676;2023-05-07T00:01:38;10.67;;;8.63;;
11125;SDS011;5617;54.046;10.676;2023-05-07T00:03:46;9.93;;;8.80;;
11125;SDS011;5617;54.046;10.676;2023-05-07T00:05:55;9.80;;;8.70;;
11125;SDS011;5617;54.046;10.676;2023-05-07T00:08:03;9.63;;;8.60;;
11125;SDS011;5617;54.046;10.676;2023-05-07T00:10:11;11.73;;;8.53;;
11125;SDS011;5617;54.046;10.676;2023-05-07T00:12:19;9.13;;;8.03;;
11125;SDS011;5617;54.046;10.676;2023-05-07T00:14:27;9.70;;;8.70;;
11125;SDS011;5617;54.046;10.676;2023-05-07T00:16:35;9.10;;;8.30;;
11125;SDS011;5617;54.046;10.676;2023-05-07T00:18:43;9.63;;;8.20;;
11125;SDS011;5617;54.046;10.676;2023-05-07T00:20:51;9.47;;;8.47;;
11125;SDS011;5617;54.046;10.676;2023-05-07T00:23:00;10.63;;;9.03;;
11125;SDS011;5617;54.046;10.676;2023-05-07T00:25:08;8.60;;;7.80;;
11125;SDS011;5617;54.046;10.676;2023-05-07T00:27:16;10.33;;;8.50;;
11125;SDS011;5617;54.046;10.676;2023-05-07T00:29:24;10.77;;;8.77;;
11125;SDS011;5617;54.046;10.676;2023-05-07T00:31:32;9.67;;;8.67;;
11125;SDS011;5617;54.046;10.676;2023-05-07T00:33:39;13.03;;;8.57;;
11125;SDS011;5617;54.046;10.676;2023-05-07T00:35:47;9.43;;;8.50;;
11125;SDS011;5617;54.046;10.676;2023-05-07T00:37:55;8.47;;;7.67;;
11125;SDS011;5617;54.046;10.676;2023-05-07T00:40:05;8.93;;;7.77;;
11125;SDS011;5617;54.046;10.676;2023-05-07T00:42:15;8.43;;;7.63;;
11125;SDS011;5617;54.046;10.676;2023-05-07T00:44:23;9.67;;;7.83;;
11125;SDS011;5617;54.046;10.676;2023-05-07T00:46:31;8.33;;;7.23;;
11125;SDS011;5617;54.046;10.676;2023-05-07T00:48:40;8.53;;;7.73;;
11125;SDS011;5617;54.046;10.676;2023-05-07T00:50:48;8.00;;;7.20;;
11125;SDS011;5617;54.046;10.676;2023-05-07T00:52:56;9.90;;;7.53;;
11125;SDS011;5617;54.046;10.676;2023-05-07T00:55:07;8.20;;;7.40;;
11125;SDS011;5617;54.046;10.676;2023-05-07T00:57:15;8.63;;;7.17;;
11125;SDS011;5617;54.046;10.676;2023-05-07T00:59:23;8.87;;;7.80;;
11125;SDS011;5617;54.046;10.676;2023-05-07T01:01:32;8.20;;;7.40;;
11125;SDS011;5617;54.046;10.676;2023-05-07T01:03:40;8.13;;;7.33;;
11125;SDS011;5617;54.046;10.676;2023-05-07T01:05:48;8.13;;;7.33;;
11125;SDS011;5617;54.046;10.676;2023-05-07T01:07:58;7.90;;;7.10;;
11125;SDS011;5617;54.046;10.676;2023-05-07T01:10:09;8.13;;;7.43;;
11125;SDS011;5617;54.046;10.676;2023-05-07T01:12:19;8.33;;;7.53;;
11125;SDS011;5617;54.046;10.676;2023-05-07T01:14:27;8.20;;;7.40;;
11125;SDS011;5617;54.046;10.676;2023-05-07T01:16:36;8.20;;;7.40;;
11125;SDS011;5617;54.046;10.676;2023-05-07T01:18:44;8.67;;;7.77;;
11125;SDS011;5617;54.046;10.676;2023-05-07T01:20:54;8.80;;;7.40;;
11125;SDS011;5617;54.046;10.676;2023-05-07T01:23:05;8.13;;;7.33;;
11125;SDS011;5617;54.046;10.676;2023-05-07T01:25:14;8.40;;;7.60;;
11125;SDS011;5617;54.046;10.676;2023-05-07T01:27:23;8.97;;;7.50;;
11125;SDS011;5617;54.046;10.676;2023-05-07T01:29:30;7.70;;;7.00;;
11125;SDS011;5617;54.046;10.676;2023-05-07T01:31:38;8.47;;;7.47;;
11125;SDS011;5617;54.046;10.676;2023-05-07T01:33:49;9.07;;;7.90;;
11125;SDS011;5617;54.046;10.676;2023-05-07T01:35:59;7.77;;;6.97;;
11125;SDS011;5617;54.046;10.676;2023-05-07T01:38:11;8.13;;;7.13;;
11125;SDS011;5617;54.046;10.676;2023-05-07T01:40:19;8.00;;;7.20;;
11125;SDS011;5617;54.046;10.676;2023-05-07T01:42:27;8.37;;;7.47;;
11125;SDS011;5617;54.046;10.676;2023-05-07T01:44:36;8.17;;;7.37;;
11125;SDS011;5617;54.046;10.676;2023-05-07T01:46:44;8.10;;;7.30;;
11125;SDS011;5617;54.046;10.676;2023-05-07T01:48:53;8.00;;;7.20;;
11125;SDS011;5617;54.046;10.676;2023-05-07T01:51:01;7.67;;;6.90;;
11125;SDS011;5617;54.046;10.676;2023-05-07T01:53:11;8.50;;;7.60;;
11125;SDS011;5617;54.046;10.676;2023-05-07T01:55:19;8.80;;;7.30;;
11125;SDS011;5617;54.046;10.676;2023-05-07T01:57:27;7.10;;;6.50;;
11125;SDS011;5617;54.046;10.676;2023-05-07T01:59:35;7.50;;;6.80;;
11125;SDS011;5617;54.046;10.676;2023-05-07T02:01:43;8.40;;;7.40;;
11125;SDS011;5617;54.046;10.676;2023-05-07T02:03:51;8.30;;;7.60;;
11125;SDS011;5617;54.046;10.676;2023-05-07T02:06:00;8.13;;;7.43;;
11125;SDS011;5617;54.046;10.676;2023-05-07T02:08:08;8.90;;;8.00;;
11125;SDS011;5617;54.046;10.676;2023-05-07T02:10:17;7.97;;;7.17;;
11125;SDS011;5617;54.046;10.676;2023-05-07T02:12:25;8.20;;;7.40;;
11125;SDS011;5617;54.046;10.676;2023-05-07T02:14:33;8.33;;;7.33;;
11125;SDS011;5617;54.046;10.676;2023-05-07T02:16:41;8.33;;;7.60;;
11125;SDS011;5617;54.046;10.676;2023-05-07T02:18:49;8.13;;;7.33;;
11125;SDS011;5617;54.046;10.676;2023-05-07T02:20:56;7.53;;;6.83;;
11125;SDS011;5617;54.046;10.676;2023-05-07T02:23:04;13.00;;;8.10;;
11125;SDS011;5617;54.046;10.676;2023-05-07T02:25:12;7.70;;;7.00;;
11125;SDS011;5617;54.046;10.676;2023-05-07T02:27:21;7.73;;;7.00;;
11125;SDS011;5617;54.046;10.676;2023-05-07T02:29:29;8.20;;;7.40;;
11125;SDS011;5617;54.046;10.676;2023-05-07T02:31:37;9.30;;;7.20;;
11125;SDS011;5617;54.046;10.676;2023-05-07T02:33:45;7.67;;;6.97;;
11125;SDS011;5617;54.046;10.676;2023-05-07T02:35:52;7.47;;;6.77;;
11125;SDS011;5617;54.046;10.676;2023-05-07T02:38:00;7.93;;;7.13;;
11125;SDS011;5617;54.046;10.676;2023-05-07T02:40:09;7.50;;;6.80;;
11125;SDS011;5617;54.046;10.676;2023-05-07T02:42:18;8.83;;;7.30;;
11125;SDS011;5617;54.046;10.676;2023-05-07T02:44:28;6.93;;;6.23;;
11125;SDS011;5617;54.046;10.676;2023-05-07T02:46:37;8.97;;;7.30;;
11125;SDS011;5617;54.046;10.676;2023-05-07T02:48:45;7.93;;;7.20;;
11125;SDS011;5617;54.046;10.676;2023-05-07T02:50:53;7.63;;;6.83;;
11125;SDS011;5617;54.046;10.676;2023-05-07T02:53:01;7.70;;;6.90;;
11125;SDS011;5617;54.046;10.676;2023-05-07T02:55:09;7.63;;;6.93;;
11125;SDS011;5617;54.046;10.676;2023-05-07T02:57:18;8.20;;;7.43;;
11125;SDS011;5617;54.046;10.676;2023-05-07T02:59:26;7.57;;;6.87;;
11125;SDS011;5617;54.046;10.676;2023-05-07T03:01:35;7.77;;;6.87;;
11125;SDS011;5617;54.046;10.676;2023-05-07T03:03:43;7.67;;;6.87;;
11125;SDS011;5617;54.046;10.676;2023-05-07T03:05:51;8.33;;;7.50;;
11125;SDS011;5617;54.046;10.676;2023-05-07T03:07:59;8.13;;;7.23;;
11125;SDS011;5617;54.046;10.676;2023-05-07T03:10:07;7.53;;;6.83;;
11125;SDS011;5617;54.046;10.676;2023-05-07T03:12:16;7.73;;;6.97;;
11125;SDS011;5617;54.046;10.676;2023-05-07T03:14:23;7.27;;;6.57;;
11125;SDS011;5617;54.046;10.676;2023-05-07T03:16:33;7.37;;;6.67;;
11125;SDS011;5617;54.046;10.676;2023-05-07T03:18:40;7.30;;;6.60;;
11125;SDS011;5617;54.046;10.676;2023-05-07T03:20:48;7.27;;;6.67;;
11125;SDS011;5617;54.046;10.676;2023-05-07T03:22:56;7.87;;;7.10;;
11125;SDS011;5617;54.046;10.676;2023-05-07T03:25:05;7.57;;;6.87;;
11125;SDS011;5617;54.046;10.676;2023-05-07T03:27:13;7.73;;;6.93;;
11125;SDS011;5617;54.046;10.676;2023-05-07T03:29:21;8.27;;;7.47;;
11125;SDS011;5617;54.046;10.676;2023-05-07T03:31:29;8.30;;;7.47;;
11125;SDS011;5617;54.046;10.676;2023-05-07T03:33:39;8.73;;;7.70;;
11125;SDS011;5617;54.046;10.676;2023-05-07T03:35:58;8.00;;;7.03;;
11125;SDS011;5617;54.046;10.676;2023-05-07T03:38:05;7.67;;;6.97;;
11125;SDS011;5617;54.046;10.676;2023-05-07T03:40:13;7.77;;;7.07;;
11125;SDS011;5617;54.046;10.676;2023-05-07T03:42:21;7.57;;;6.87;;
11125;SDS011;5617;54.046;10.676;2023-05-07T03:44:29;8.50;;;7.53;;
11125;SDS011;5617;54.046;10.676;2023-05-07T03:46:36;7.80;;;6.97;;
11125;SDS011;5617;54.046;10.676;2023-05-07T03:48:46;8.00;;;7.27;;
11125;SDS011;5617;54.046;10.676;2023-05-07T03:50:55;7.70;;;6.90;;
11125;SDS011;5617;54.046;10.676;2023-05-07T03:53:04;8.23;;;7.47;;
11125;SDS011;5617;54.046;10.676;2023-05-07T03:55:12;7.83;;;6.83;;
11125;SDS011;5617;54.046;10.676;2023-05-07T03:57:20;8.20;;;7.40;;
11125;SDS011;5617;54.046;10.676;2023-05-07T03:59:28;7.90;;;7.10;;
11125;SDS011;5617;54.046;10.676;2023-05-07T04:01:35;7.97;;;7.27;;
11125;SDS011;5617;54.046;10.676;2023-05-07T04:03:43;7.70;;;7.00;;
11125;SDS011;5617;54.046;10.676;2023-05-07T04:05:53;7.93;;;6.87;;
11125;SDS011;5617;54.046;10.676;2023-05-07T04:08:01;8.13;;;7.33;;
11125;SDS011;5617;54.046;10.676;2023-05-07T04:10:09;7.37;;;6.77;;
11125;SDS011;5617;54.046;10.676;2023-05-07T04:12:17;7.37;;;6.67;;
11125;SDS011;5617;54.046;10.676;2023-05-07T04:14:25;7.63;;;6.90;;
11125;SDS011;5617;54.046;10.676;2023-05-07T04:16:34;7.13;;;6.43;;
11125;SDS011;5617;54.046;10.676;2023-05-07T04:18:42;7.20;;;6.43;;
11125;SDS011;5617;54.046;10.676;2023-05-07T04:20:50;7.27;;;6.53;;
11125;SDS011;5617;54.046;10.676;2023-05-07T04:22:59;7.20;;;6.60;;
11125;SDS011;5617;54.046;10.676;2023-05-07T04:25:08;7.47;;;6.77;;
11125;SDS011;5617;54.046;10.676;2023-05-07T04:27:16;6.87;;;6.17;;
11125;SDS011;5617;54.046;10.676;2023-05-07T04:29:24;7.73;;;6.73;;
11125;SDS011;5617;54.046;10.676;2023-05-07T04:31:32;6.80;;;6.10;;
11125;SDS011;5617;54.046;10.676;2023-05-07T04:33:40;7.30;;;6.60;;
11125;SDS011;5617;54.046;10.676;2023-05-07T04:35:48;7.83;;;6.53;;
11125;SDS011;5617;54.046;10.676;2023-05-07T04:37:56;7.30;;;6.60;;
11125;SDS011;5617;54.046;10.676;2023-05-07T04:40:06;7.27;;;6.30;;
11125;SDS011;5617;54.046;10.676;2023-05-07T04:42:15;6.83;;;6.23;;
11125;SDS011;5617;54.046;10.676;2023-05-07T04:44:23;7.63;;;6.37;;
11125;SDS011;5617;54.046;10.676;2023-05-07T04:46:31;6.80;;;6.10;;
11125;SDS011;5617;54.046;10.676;2023-05-07T04:48:39;7.20;;;6.50;;
11125;SDS011;5617;54.046;10.676;2023-05-07T04:50:47;6.33;;;5.73;;
11125;SDS011;5617;54.046;10.676;2023-05-07T04:52:55;6.73;;;6.07;;
11125;SDS011;5617;54.046;10.676;2023-05-07T04:55:03;7.33;;;6.63;;
11125;SDS011;5617;54.046;10.676;2023-05-07T04:57:13;7.70;;;6.40;;
11125;SDS011;5617;54.046;10.676;2023-05-07T04:59:21;7.87;;;6.17;;
11125;SDS011;5617;54.046;10.676;2023-05-07T05:01:28;6.60;;;6.00;;
11125;SDS011;5617;54.046;10.676;2023-05-07T05:03:36;7.20;;;6.30;;
11125;SDS011;5617;54.046;10.676;2023-05-07T05:05:45;6.47;;;5.87;;
11125;SDS011;5617;54.046;10.676;2023-05-07T05:07:53;6.80;;;6.10;;
11125;SDS011;5617;54.046;10.676;2023-05-07T05:10:01;6.83;;;6.00;;
11125;SDS011;5617;54.046;10.676;2023-05-07T05:12:10;6.70;;;6.00;;
11125;SDS011;5617;54.046;10.676;2023-05-07T05:14:19;7.07;;;6.33;;
11125;SDS011;5617;54.046;10.676;2023-05-07T05:16:27;8.00;;;6.63;;
11125;SDS011;5617;54.046;10.676;2023-05-07T05:18:35;7.67;;;6.83;;
11125;SDS011;5617;54.046;10.676;2023-05-07T05:20:44;7.13;;;6.43;;
11125;SDS011;5617;54.046;10.676;2023-05-07T05:22:52;7.20;;;6.60;;
11125;SDS011;5617;54.046;10.676;2023-05-07T05:25:00;7.30;;;6.20;;
11125;SDS011;5617;54.046;10.676;2023-05-07T05:27:08;7.03;;;6.40;;
11125;SDS011;5617;54.046;10.676;2023-05-07T05:29:16;8.93;;;6.80;;
11125;SDS011;5617;54.046;10.676;2023-05-07T05:31:25;7.60;;;6.20;;
11125;SDS011;5617;54.046;10.676;2023-05-07T05:33:33;6.97;;;6.27;;
11125;SDS011;5617;54.046;10.676;2023-05-07T05:35:41;6.47;;;5.70;;
11125;SDS011;5617;54.046;10.676;2023-05-07T05:37:49;7.47;;;6.77;;
11125;SDS011;5617;54.046;10.676;2023-05-07T05:39:57;7.10;;;6.50;;
11125;SDS011;5617;54.046;10.676;2023-05-07T05:42:05;6.77;;;6.10;;
11125;SDS011;5617;54.046;10.676;2023-05-07T05:44:13;8.17;;;6.40;;
11125;SDS011;5617;54.046;10.676;2023-05-07T05:46:21;7.67;;;6.30;;
11125;SDS011;5617;54.046;10.676;2023-05-07T05:48:31;6.87;;;6.17;;
11125;SDS011;5617;54.046;10.676;2023-05-07T05:50:38;7.00;;;6.03;;
11125;SDS011;5617;54.046;10.676;2023-05-07T05:52:46;6.33;;;5.73;;
11125;SDS011;5617;54.046;10.676;2023-05-07T05:54:55;6.47;;;5.87;;
11125;SDS011;5617;54.046;10.676;2023-05-07T05:57:03;6.00;;;5.40;;
11125;SDS011;5617;54.046;10.676;2023-05-07T05:59:12;6.40;;;5.80;;
11125;SDS011;5617;54.046;10.676;2023-05-07T06:01:20;7.53;;;6.03;;
11125;SDS011;5617;54.046;10.676;2023-05-07T06:03:28;5.83;;;5.23;;
11125;SDS011;5617;54.046;10.676;2023-05-07T06:05:37;6.10;;;5.50;;
11125;SDS011;5617;54.046;10.676;2023-05-07T06:07:45;5.37;;;4.87;;
11125;SDS011;5617;54.046;10.676;2023-05-07T06:09:55;5.90;;;5.30;;
11125;SDS011;5617;54.046;10.676;2023-05-07T06:12:02;6.10;;;4.70;;
11125;SDS011;5617;54.046;10.676;2023-05-07T06:14:10;5.53;;;5.03;;
11125;SDS011;5617;54.046;10.676;2023-05-07T06:16:18;5.70;;;5.20;;
11125;SDS011;5617;54.046;10.676;2023-05-07T06:18:26;5.33;;;4.83;;
11125;SDS011;5617;54.046;10.676;2023-05-07T06:20:34;5.47;;;4.90;;
11125;SDS011;5617;54.046;10.676;2023-05-07T06:22:43;5.10;;;4.60;;
11125;SDS011;5617;54.046;10.676;2023-05-07T06:24:51;6.73;;;5.30;;
11125;SDS011;5617;54.046;10.676;2023-05-07T06:26:59;4.97;;;4.50;;
11125;SDS011;5617;54.046;10.676;2023-05-07T06:29:07;5.87;;;5.37;;
11125;SDS011;5617;54.046;10.676;2023-05-07T06:31:16;4.87;;;4.47;;
11125;SDS011;5617;54.046;10.676;2023-05-07T06:33:26;4.63;;;4.23;;
11125;SDS011;5617;54.046;10.676;2023-05-07T06:35:34;4.50;;;4.10;;
11125;SDS011;5617;54.046;10.676;2023-05-07T06:37:44;4.93;;;4.40;;
11125;SDS011;5617;54.046;10.676;2023-05-07T06:39:52;4.70;;;4.30;;
11125;SDS011;5617;54.046;10.676;2023-05-07T06:42:00;4.27;;;3.87;;
11125;SDS011;5617;54.046;10.676;2023-05-07T06:44:08;4.93;;;4.50;;
11125;SDS011;5617;54.046;10.676;2023-05-07T06:46:16;4.20;;;3.80;;
11125;SDS011;5617;54.046;10.676;2023-05-07T06:48:24;3.70;;;3.40;;
11125;SDS011;5617;54.046;10.676;2023-05-07T06:50:32;4.90;;;3.97;;
11125;SDS011;5617;54.046;10.676;2023-05-07T06:52:40;4.10;;;3.70;;
11125;SDS011;5617;54.046;10.676;2023-05-07T06:54:49;4.23;;;3.60;;
11125;SDS011;5617;54.046;10.676;2023-05-07T06:56:57;4.30;;;3.90;;
11125;SDS011;5617;54.046;10.676;2023-05-07T06:59:05;4.00;;;3.70;;
11125;SDS011;5617;54.046;10.676;2023-05-07T07:01:14;4.10;;;3.80;;
11125;SDS011;5617;54.046;10.676;2023-05-07T07:03:22;4.37;;;3.87;;
11125;SDS011;5617;54.046;10.676;2023-05-07T07:05:31;4.17;;;3.77;;
11125;SDS011;5617;54.046;10.676;2023-05-07T07:07:39;4.43;;;4.03;;
11125;SDS011;5617;54.046;10.676;2023-05-07T07:09:48;4.47;;;3.83;;
11125;SDS011;5617;54.046;10.676;2023-05-07T07:11:57;4.27;;;3.87;;
11125;SDS011;5617;54.046;10.676;2023-05-07T07:14:06;5.40;;;4.90;;
11125;SDS011;5617;54.046;10.676;2023-05-07T07:16:14;5.70;;;4.67;;
11125;SDS011;5617;54.046;10.676;2023-05-07T07:18:22;4.80;;;4.40;;
11125;SDS011;5617;54.046;10.676;2023-05-07T07:20:31;5.90;;;5.30;;
11125;SDS011;5617;54.046;10.676;2023-05-07T07:22:39;5.80;;;5.20;;
11125;SDS011;5617;54.046;10.676;2023-05-07T07:24:49;5.67;;;5.17;;
11125;SDS011;5617;54.046;10.676;2023-05-07T07:26:57;6.73;;;5.17;;
11125;SDS011;5617;54.046;10.676;2023-05-07T07:29:05;5.93;;;5.33;;
11125;SDS011;5617;54.046;10.676;2023-05-07T07:31:14;5.47;;;4.93;;
11125;SDS011;5617;54.046;10.676;2023-05-07T07:33:21;5.50;;;5.00;;
11125;SDS011;5617;54.046;10.676;2023-05-07T07:35:29;6.53;;;4.93;;
11125;SDS011;5617;54.046;10.676;2023-05-07T07:37:37;5.00;;;4.60;;
11125;SDS011;5617;54.046;10.676;2023-05-07T07:39:49;5.70;;;5.00;;
11125;SDS011;5617;54.046;10.676;2023-05-07T07:41:57;5.07;;;4.60;;
11125;SDS011;5617;54.046;10.676;2023-05-07T07:44:05;4.70;;;4.30;;
11125;SDS011;5617;54.046;10.676;2023-05-07T07:46:14;5.30;;;4.60;;
11125;SDS011;5617;54.046;10.676;2023-05-07T07:48:22;5.30;;;4.80;;
11125;SDS011;5617;54.046;10.676;2023-05-07T07:50:30;4.90;;;4.50;;
11125;SDS011;5617;54.046;10.676;2023-05-07T07:52:52;4.90;;;4.50;;
11125;SDS011;5617;54.046;10.676;2023-05-07T07:55:01;4.50;;;4.10;;
11125;SDS011;5617;54.046;10.676;2023-05-07T07:57:09;6.17;;;4.43;;
11125;SDS011;5617;54.046;10.676;2023-05-07T07:59:17;4.40;;;4.00;;
11125;SDS011;5617;54.046;10.676;2023-05-07T08:01:25;4.53;;;4.13;;
11125;SDS011;5617;54.046;10.676;2023-05-07T08:03:33;5.10;;;4.60;;
11125;SDS011;5617;54.046;10.676;2023-05-07T08:05:42;4.30;;;3.90;;
11125;SDS011;5617;54.046;10.676;2023-05-07T08:07:50;4.53;;;4.13;;
11125;SDS011;5617;54.046;10.676;2023-05-07T08:10:00;4.70;;;4.30;;
11125;SDS011;5617;54.046;10.676;2023-05-07T08:12:08;4.33;;;3.93;;
11125;SDS011;5617;54.046;10.676;2023-05-07T08:14:16;4.67;;;4.27;;
11125;SDS011;5617;54.046;10.676;2023-05-07T08:16:23;4.60;;;4.20;;
11125;SDS011;5617;54.046;10.676;2023-05-07T08:18:32;6.63;;;3.90;;
11125;SDS011;5617;54.046;10.676;2023-05-07T08:20:40;4.03;;;3.63;;
11125;SDS011;5617;54.046;10.676;2023-05-07T08:22:48;4.20;;;3.90;;
11125;SDS011;5617;54.046;10.676;2023-05-07T08:24:56;3.93;;;3.53;;
11125;SDS011;5617;54.046;10.676;2023-05-07T08:27:05;4.40;;;4.00;;
11125;SDS011;5617;54.046;10.676;2023-05-07T08:29:13;3.90;;;3.60;;
11125;SDS011;5617;54.046;10.676;2023-05-07T08:31:21;3.80;;;3.50;;
11125;SDS011;5617;54.046;10.676;2023-05-07T08:33:29;3.90;;;3.60;;
11125;SDS011;5617;54.046;10.676;2023-05-07T08:35:37;4.07;;;3.67;;
11125;SDS011;5617;54.046;10.676;2023-05-07T08:37:44;3.57;;;3.27;;
11125;SDS011;5617;54.046;10.676;2023-05-07T08:39:52;3.70;;;3.40;;
11125;SDS011;5617;54.046;10.676;2023-05-07T08:42:01;3.83;;;3.47;;
11125;SDS011;5617;54.046;10.676;2023-05-07T08:44:12;3.53;;;3.23;;
11125;SDS011;5617;54.046;10.676;2023-05-07T08:46:21;3.00;;;2.80;;
11125;SDS011;5617;54.046;10.676;2023-05-07T08:48:29;3.43;;;3.13;;
11125;SDS011;5617;54.046;10.676;2023-05-07T08:50:39;3.60;;;3.37;;
11125;SDS011;5617;54.046;10.676;2023-05-07T08:52:47;3.10;;;2.90;;
11125;SDS011;5617;54.046;10.676;2023-05-07T08:54:56;3.87;;;3.10;;
11125;SDS011;5617;54.046;10.676;2023-05-07T08:57:04;3.93;;;3.10;;
11125;SDS011;5617;54.046;10.676;2023-05-07T08:59:13;3.00;;;2.80;;
11125;SDS011;5617;54.046;10.676;2023-05-07T09:01:21;2.97;;;2.60;;
11125;SDS011;5617;54.046;10.676;2023-05-07T09:03:30;3.07;;;2.83;;
11125;SDS011;5617;54.046;10.676;2023-05-07T09:05:38;3.97;;;3.27;;
11125;SDS011;5617;54.046;10.676;2023-05-07T09:07:47;2.97;;;2.70;;
11125;SDS011;5617;54.046;10.676;2023-05-07T09:10:01;4.53;;;4.13;;
11125;SDS011;5617;54.046;10.676;2023-05-07T09:12:10;2.90;;;2.70;;
11125;SDS011;5617;54.046;10.676;2023-05-07T09:14:21;2.90;;;2.70;;
11125;SDS011;5617;54.046;10.676;2023-05-07T09:16:29;4.30;;;3.90;;
11125;SDS011;5617;54.046;10.676;2023-05-07T09:18:40;2.60;;;2.40;;
11125;SDS011;5617;54.046;10.676;2023-05-07T09:20:49;2.80;;;2.60;;
11125;SDS011;5617;54.046;10.676;2023-05-07T09:22:58;2.43;;;2.23;;
11125;SDS011;5617;54.046;10.676;2023-05-07T09:25:06;2.63;;;2.43;;
11125;SDS011;5617;54.046;10.676;2023-05-07T09:27:15;2.37;;;2.20;;
11125;SDS011;5617;54.046;10.676;2023-05-07T09:29:26;2.00;;;1.90;;
11125;SDS011;5617;54.046;10.676;2023-05-07T09:31:36;2.37;;;2.17;;
11125;SDS011;5617;54.046;10.676;2023-05-07T09:33:44;2.33;;;2.23;;
11125;SDS011;5617;54.046;10.676;2023-05-07T09:35:52;3.87;;;2.40;;
11125;SDS011;5617;54.046;10.676;2023-05-07T09:38:01;2.47;;;2.23;;
11125;SDS011;5617;54.046;10.676;2023-05-07T09:40:21;3.47;;;2.50;;
11125;SDS011;5617;54.046;10.676;2023-05-07T09:42:29;2.23;;;2.03;;
11125;SDS011;5617;54.046;10.676;2023-05-07T09:44:37;2.30;;;2.20;;
11125;SDS011;5617;54.046;10.676;2023-05-07T09:46:46;2.20;;;2.00;;
11125;SDS011;5617;54.046;10.676;2023-05-07T09:49:01;3.00;;;2.80;;
11125;SDS011;5617;54.046;10.676;2023-05-07T09:51:12;3.47;;;2.93;;
11125;SDS011;5617;54.046;10.676;2023-05-07T09:53:29;2.70;;;2.50;;
11125;SDS011;5617;54.046;10.676;2023-05-07T09:55:39;2.83;;;2.63;;
11125;SDS011;5617;54.046;10.676;2023-05-07T09:57:48;4.70;;;2.97;;
11125;SDS011;5617;54.046;10.676;2023-05-07T09:59:57;2.90;;;2.70;;
11125;SDS011;5617;54.046;10.676;2023-05-07T10:02:05;2.30;;;2.20;;
11125;SDS011;5617;54.046;10.676;2023-05-07T10:04:16;2.47;;;2.23;;
11125;SDS011;5617;54.046;10.676;2023-05-07T10:06:24;2.50;;;2.30;;
11125;SDS011;5617;54.046;10.676;2023-05-07T10:08:33;2.50;;;2.30;;
11125;SDS011;5617;54.046;10.676;2023-05-07T10:10:42;2.40;;;2.20;;
11125;SDS011;5617;54.046;10.676;2023-05-07T10:12:51;3.10;;;2.40;;
11125;SDS011;5617;54.046;10.676;2023-05-07T10:14:59;2.80;;;1.90;;
11125;SDS011;5617;54.046;10.676;2023-05-07T10:17:08;2.00;;;1.90;;
11125;SDS011;5617;54.046;10.676;2023-05-07T10:19:18;2.20;;;2.00;;
11125;SDS011;5617;54.046;10.676;2023-05-07T10:21:27;2.40;;;2.20;;
11125;SDS011;5617;54.046;10.676;2023-05-07T10:23:37;2.40;;;2.20;;
11125;SDS011;5617;54.046;10.676;2023-05-07T10:25:48;2.13;;;1.93;;
11125;SDS011;5617;54.046;10.676;2023-05-07T10:28:03;2.03;;;1.93;;
11125;SDS011;5617;54.046;10.676;2023-05-07T10:30:19;2.10;;;1.90;;
11125;SDS011;5617;54.046;10.676;2023-05-07T10:32:39;2.00;;;1.87;;
11125;SDS011;5617;54.046;10.676;2023-05-07T10:34:50;1.93;;;1.70;;
11125;SDS011;5617;54.046;10.676;2023-05-07T10:37:01;1.80;;;1.70;;
11125;SDS011;5617;54.046;10.676;2023-05-07T10:39:10;2.30;;;2.07;;
11125;SDS011;5617;54.046;10.676;2023-05-07T10:41:19;2.33;;;2.00;;
11125;SDS011;5617;54.046;10.676;2023-05-07T10:43:37;1.80;;;1.70;;
11125;SDS011;5617;54.046;10.676;2023-05-07T10:48:21;1.77;;;1.67;;
11125;SDS011;5617;54.046;10.676;2023-05-07T10:50:37;2.00;;;1.80;;
11125;SDS011;5617;54.046;10.676;2023-05-07T10:52:45;2.03;;;1.73;;
11125;SDS011;5617;54.046;10.676;2023-05-07T10:55:33;1.73;;;1.57;;
11125;SDS011;5617;54.046;10.676;2023-05-07T10:57:41;2.50;;;1.70;;
11125;SDS011;5617;54.046;10.676;2023-05-07T10:59:49;1.80;;;1.70;;
11125;SDS011;5617;54.046;10.676;2023-05-07T11:01:58;2.17;;;1.50;;
11125;SDS011;5617;54.046;10.676;2023-05-07T11:04:14;1.60;;;1.50;;
11125;SDS011;5617;54.046;10.676;2023-05-07T11:06:23;1.87;;;1.77;;
11125;SDS011;5617;54.046;10.676;2023-05-07T11:08:46;3.13;;;1.80;;
11125;SDS011;5617;54.046;10.676;2023-05-07T11:11:00;1.60;;;1.50;;
11125;SDS011;5617;54.046;10.676;2023-05-07T11:13:09;1.80;;;1.70;;
11125;SDS011;5617;54.046;10.676;2023-05-07T11:15:33;2.07;;;1.70;;
11125;SDS011;5617;54.046;10.676;2023-05-07T11:17:52;2.53;;;1.90;;
11125;SDS011;5617;54.046;10.676;2023-05-07T11:20:01;1.83;;;1.73;;
11125;SDS011;5617;54.046;10.676;2023-05-07T11:22:25;1.87;;;1.77;;
11125;SDS011;5617;54.046;10.676;2023-05-07T11:24:47;1.70;;;1.60;;
11125;SDS011;5617;54.046;10.676;2023-05-07T11:26:55;1.70;;;1.60;;
11125;SDS011;5617;54.046;10.676;2023-05-07T11:29:04;1.80;;;1.70;;
11125;SDS011;5617;54.046;10.676;2023-05-07T11:31:22;1.83;;;1.60;;
11125;SDS011;5617;54.046;10.676;2023-05-07T11:33:32;1.90;;;1.80;;
11125;SDS011;5617;54.046;10.676;2023-05-07T11:35:40;2.90;;;1.70;;
11125;SDS011;5617;54.046;10.676;2023-05-07T11:37:49;2.20;;;1.70;;
11125;SDS011;5617;54.046;10.676;2023-05-07T11:40:07;1.50;;;1.40;;
11125;SDS011;5617;54.046;10.676;2023-05-07T11:42:27;2.57;;;1.80;;
11125;SDS011;5617;54.046;10.676;2023-05-07T11:44:41;2.50;;;1.57;;
11125;SDS011;5617;54.046;10.676;2023-05-07T11:46:50;1.87;;;1.40;;
11125;SDS011;5617;54.046;10.676;2023-05-07T11:49:04;1.83;;;1.63;;
11125;SDS011;5617;54.046;10.676;2023-05-07T11:51:13;1.97;;;1.87;;
11125;SDS011;5617;54.046;10.676;2023-05-07T11:53:26;1.60;;;1.50;;
11125;SDS011;5617;54.046;10.676;2023-05-07T11:55:36;1.60;;;1.50;;
11125;SDS011;5617;54.046;10.676;2023-05-07T11:57:44;2.50;;;1.60;;
11125;SDS011;5617;54.046;10.676;2023-05-07T11:59:52;1.90;;;1.40;;
11125;SDS011;5617;54.046;10.676;2023-05-07T12:02:00;1.60;;;1.50;;
11125;SDS011;5617;54.046;10.676;2023-05-07T12:04:08;1.67;;;1.57;;
11125;SDS011;5617;54.046;10.676;2023-05-07T12:06:17;1.77;;;1.67;;
11125;SDS011;5617;54.046;10.676;2023-05-07T12:08:25;1.63;;;1.40;;
11125;SDS011;5617;54.046;10.676;2023-05-07T12:10:33;1.50;;;1.40;;
11125;SDS011;5617;54.046;10.676;2023-05-07T12:12:45;3.00;;;1.40;;
11125;SDS011;5617;54.046;10.676;2023-05-07T12:14:53;1.87;;;1.63;;
11125;SDS011;5617;54.046;10.676;2023-05-07T12:17:01;1.50;;;1.40;;
11125;SDS011;5617;54.046;10.676;2023-05-07T12:19:12;1.63;;;1.53;;
11125;SDS011;5617;54.046;10.676;2023-05-07T12:21:21;3.27;;;1.50;;
11125;SDS011;5617;54.046;10.676;2023-05-07T12:23:30;1.50;;;1.40;;
11125;SDS011;5617;54.046;10.676;2023-05-07T12:25:38;4.10;;;1.33;;
11125;SDS011;5617;54.046;10.676;2023-05-07T12:27:52;1.70;;;1.50;;
11125;SDS011;5617;54.046;10.676;2023-05-07T12:30:00;2.63;;;1.50;;
11125;SDS011;5617;54.046;10.676;2023-05-07T12:32:12;1.50;;;1.40;;
11125;SDS011;5617;54.046;10.676;2023-05-07T12:34:21;2.03;;;1.43;;
11125;SDS011;5617;54.046;10.676;2023-05-07T12:36:36;1.60;;;1.50;;
11125;SDS011;5617;54.046;10.676;2023-05-07T12:38:44;2.07;;;1.50;;
11125;SDS011;5617;54.046;10.676;2023-05-07T12:40:53;1.43;;;1.33;;
11125;SDS011;5617;54.046;10.676;2023-05-07T12:43:03;4.50;;;1.63;;
11125;SDS011;5617;54.046;10.676;2023-05-07T12:45:11;1.97;;;1.50;;
11125;SDS011;5617;54.046;10.676;2023-05-07T12:47:20;1.33;;;1.33;;
11125;SDS011;5617;54.046;10.676;2023-05-07T12:49:29;1.57;;;1.47;;
11125;SDS011;5617;54.046;10.676;2023-05-07T12:51:37;2.60;;;1.50;;
11125;SDS011;5617;54.046;10.676;2023-05-07T12:53:45;1.30;;;1.20;;
11125;SDS011;5617;54.046;10.676;2023-05-07T12:55:54;1.33;;;1.23;;
11125;SDS011;5617;54.046;10.676;2023-05-07T12:58:04;1.30;;;1.20;;
11125;SDS011;5617;54.046;10.676;2023-05-07T13:00:12;1.90;;;1.17;;
11125;SDS011;5617;54.046;10.676;2023-05-07T13:02:21;2.43;;;1.50;;